Time;durP1;ratioP1;P1;durP2;ratioP2;P2;SDS_P1;SDS_P2;PMS_P1;PMS_P2;Temp;Humidity;BMP_temperature;BMP_pressure;BME280_temperature;BME280_humidity;BME280_pressure;Samples;Min_cycle;Max_cycle;Signal;HPM_P1;HPM_P2
2023/06/02 00:01:03;;;;;;;;;;;14.20;61.60;;;;;;5088716;28;20387;-72
2023/06/02 00:03:33;;;;;;;;;;;14.20;61.60;;;;;;5087331;28;19959;-71
2023/06/02 00:06:00;;;;;;;;;;;14.20;61.60;;;;;;5088354;28;19931;-71
2023/06/02 00:08:26;;;;;;;;;;;14.20;61.60;;;;;;5088433;28;19915;-71
2023/06/02 00:10:52;;;;;;;;;;;14.20;61.60;;;;;;5088707;28;20288;-71
2023/06/02 00:13:17;;;;;;;;;;;14.20;61.60;;;;;;5088618;28;19916;-72
2023/06/02 00:15:43;;;;;;;;;;;14.30;61.60;;;;;;5088283;28;19932;-71
2023/06/02 00:18:09;;;;;;;;;;;14.30;61.50;;;;;;5088666;28;20322;-71
2023/06/02 00:20:34;;;;;;;;;;;14.20;61.50;;;;;;5088519;28;19912;-72
2023/06/02 00:23:02;;;;;;;;;;;14.20;61.50;;;;;;5088579;28;19954;-71
2023/06/02 00:25:28;;;;;;;;;;;14.20;61.60;;;;;;5087158;28;20350;-71
2023/06/02 00:27:54;;;;;;;;;;;14.20;61.60;;;;;;5088329;28;19920;-71
2023/06/02 00:30:19;;;;;;;;;;;14.20;61.60;;;;;;5087349;28;19908;-71
2023/06/02 00:32:45;;;;;;;;;;;14.10;61.70;;;;;;5088453;28;19965;-71
2023/06/02 00:35:11;;;;;;;;;;;14.10;61.70;;;;;;5088491;28;19908;-71
2023/06/02 00:37:36;;;;;;;;;;;14.10;61.70;;;;;;5088349;28;19912;-71
2023/06/02 00:40:02;;;;;;;;;;;14.10;61.70;;;;;;5088345;28;19912;-71
2023/06/02 00:42:28;;;;;;;;;;;14.10;61.70;;;;;;5088263;28;19958;-71
2023/06/02 00:44:53;;;;;;;;;;;14.10;61.70;;;;;;5088233;28;19912;-70
2023/06/02 00:47:19;;;;;;;;;;;14.10;61.80;;;;;;5088098;28;19916;-71
2023/06/02 00:49:45;;;;;;;;;;;14.00;61.80;;;;;;5088173;28;20326;-70
2023/06/02 00:52:10;;;;;;;;;;;14.10;61.80;;;;;;5088223;28;19913;-70
2023/06/02 00:54:36;;;;;;;;;;;14.10;61.80;;;;;;5087981;28;19912;-71
2023/06/02 00:57:01;;;;;;;;;;;14.10;61.80;;;;;;5088190;28;19919;-71
2023/06/02 00:59:27;;;;;;;;;;;14.10;61.80;;;;;;5088017;28;19916;-71
2023/06/02 01:01:54;;;;;;;;;;;14.10;61.70;;;;;;5087955;28;19916;-71
2023/06/02 01:04:20;;;;;;;;;;;14.10;61.80;;;;;;5088467;28;19924;-70
2023/06/02 01:06:48;;;;;;;;;;;14.00;61.90;;;;;;5087917;28;19916;-70
2023/06/02 01:09:16;;;;;;;;;;;14.00;61.80;;;;;;5087907;28;19999;-70
2023/06/02 01:11:42;;;;;;;;;;;14.00;61.80;;;;;;5087910;28;20368;-70
2023/06/02 01:14:09;;;;;;;;;;;14.00;61.80;;;;;;5087810;28;19912;-71
2023/06/02 01:16:35;;;;;;;;;;;14.00;61.80;;;;;;5087882;28;19933;-70
2023/06/02 01:19:01;;;;;;;;;;;14.00;61.80;;;;;;5090755;28;19998;-71
2023/06/02 01:21:30;;;;;;;;;;;14.00;61.80;;;;;;5091980;28;19962;-70
2023/06/02 01:23:57;;;;;;;;;;;13.90;61.80;;;;;;5091880;28;20379;-70
2023/06/02 01:26:23;;;;;;;;;;;14.00;61.90;;;;;;5091732;28;20017;-70
2023/06/02 01:28:49;;;;;;;;;;;14.00;61.80;;;;;;5091909;28;19916;-70
2023/06/02 01:31:14;;;;;;;;;;;13.90;61.80;;;;;;5091803;28;19913;-71
2023/06/02 01:33:47;;;;;;;;;;;13.90;61.80;;;;;;5091797;28;19908;-71
2023/06/02 01:36:13;;;;;;;;;;;13.90;61.90;;;;;;5091641;28;20011;-71
2023/06/02 01:38:40;;;;;;;;;;;13.80;61.80;;;;;;5091701;28;20328;-71
2023/06/02 01:41:06;;;;;;;;;;;13.90;61.90;;;;;;5091671;28;19916;-71
2023/06/02 01:43:32;;;;;;;;;;;13.90;61.80;;;;;;5090280;28;19916;-71
2023/06/02 01:45:58;;;;;;;;;;;13.90;61.90;;;;;;5091447;28;19920;-71
2023/06/02 01:48:26;;;;;;;;;;;13.80;61.80;;;;;;5091574;28;19916;-71
2023/06/02 01:50:52;;;;;;;;;;;13.80;61.90;;;;;;5091485;28;19908;-71
2023/06/02 01:53:19;;;;;;;;;;;13.80;62.00;;;;;;5091412;28;20276;-71
2023/06/02 01:55:47;;;;;;;;;;;13.80;61.90;;;;;;5089985;28;19967;-71
2023/06/02 01:58:12;;;;;;;;;;;13.80;62.00;;;;;;5090064;28;20348;-71
2023/06/02 02:00:38;;;;;;;;;;;13.70;61.90;;;;;;5091329;28;20017;-71
2023/06/02 02:03:04;;;;;;;;;;;13.70;61.90;;;;;;5091110;28;20420;-71
2023/06/02 02:05:30;;;;;;;;;;;13.70;62.00;;;;;;5091096;28;19908;-71
2023/06/02 02:07:57;;;;;;;;;;;13.70;62.00;;;;;;5091086;28;19968;-71
2023/06/02 02:10:23;;;;;;;;;;;13.70;62.00;;;;;;5091165;28;19915;-71
2023/06/02 02:12:48;;;;;;;;;;;13.70;62.00;;;;;;5091000;28;20290;-72
2023/06/02 02:15:15;;;;;;;;;;;13.60;61.90;;;;;;5090931;28;19915;-71
2023/06/02 02:17:47;;;;;;;;;;;13.60;61.90;;;;;;5090969;28;19916;-71
2023/06/02 02:20:14;;;;;;;;;;;13.60;62.00;;;;;;5089543;28;20361;-71
2023/06/02 02:22:39;;;;;;;;;;;13.50;62.00;;;;;;5089591;28;20471;-71
2023/06/02 02:25:05;;;;;;;;;;;13.50;62.00;;;;;;5090686;28;20045;-71
2023/06/02 02:27:31;;;;;;;;;;;13.50;62.00;;;;;;5090800;28;20053;-71
2023/06/02 02:29:57;;;;;;;;;;;13.50;62.00;;;;;;5090082;28;20284;-71
2023/06/02 02:32:23;;;;;;;;;;;13.50;62.00;;;;;;5090740;28;19912;-71
2023/06/02 02:34:48;;;;;;;;;;;13.50;62.00;;;;;;5090448;28;19919;-71
2023/06/02 02:37:14;;;;;;;;;;;13.40;62.10;;;;;;5090589;28;19997;-71
2023/06/02 02:39:39;;;;;;;;;;;13.40;62.10;;;;;;5090603;28;19948;-71
2023/06/02 02:42:05;;;;;;;;;;;13.40;62.10;;;;;;5090570;28;19912;-71
2023/06/02 02:44:31;;;;;;;;;;;13.40;62.10;;;;;;5090362;28;19957;-71
2023/06/02 02:46:58;;;;;;;;;;;13.40;62.10;;;;;;5090507;28;20309;-72
2023/06/02 02:49:24;;;;;;;;;;;13.30;62.00;;;;;;5089056;28;19924;-72
2023/06/02 02:51:49;;;;;;;;;;;13.30;62.10;;;;;;5089083;28;19920;-71
2023/06/02 02:54:15;;;;;;;;;;;13.30;62.10;;;;;;5090087;28;20433;-71
2023/06/02 02:56:41;;;;;;;;;;;13.30;62.10;;;;;;5090200;28;19987;-71
2023/06/02 02:59:06;;;;;;;;;;;13.30;62.00;;;;;;5088898;28;20098;-71
2023/06/02 03:01:32;;;;;;;;;;;13.30;62.00;;;;;;5090083;28;20238;-71
2023/06/02 03:03:58;;;;;;;;;;;13.30;62.00;;;;;;5090125;28;20384;-71
2023/06/02 03:06:28;;;;;;;;;;;13.30;62.00;;;;;;5090051;28;20003;-71
2023/06/02 03:08:53;;;;;;;;;;;13.30;62.00;;;;;;5090304;28;20326;-72
2023/06/02 03:11:21;;;;;;;;;;;13.20;62.00;;;;;;5089928;28;19916;-71
2023/06/02 03:13:46;;;;;;;;;;;13.20;62.10;;;;;;5090017;28;19986;-71
2023/06/02 03:16:12;;;;;;;;;;;13.20;62.10;;;;;;5089959;28;19913;-71
2023/06/02 03:18:38;;;;;;;;;;;13.20;62.10;;;;;;5089722;28;19916;-71
2023/06/02 03:21:05;;;;;;;;;;;13.20;62.10;;;;;;5089749;28;19908;-71
2023/06/02 03:23:30;;;;;;;;;;;13.10;62.00;;;;;;5089745;28;20369;-71
2023/06/02 03:25:56;;;;;;;;;;;13.10;62.10;;;;;;5089627;28;20316;-71
2023/06/02 03:28:22;;;;;;;;;;;13.10;62.10;;;;;;5089593;28;19912;-71
2023/06/02 03:30:47;;;;;;;;;;;13.10;62.10;;;;;;5089608;28;19916;-70
2023/06/02 03:33:13;;;;;;;;;;;13.00;62.10;;;;;;5089601;28;19912;-71
2023/06/02 03:35:39;;;;;;;;;;;13.00;62.10;;;;;;5089390;28;19927;-71
2023/06/02 03:38:05;;;;;;;;;;;13.00;62.10;;;;;;5089451;28;20319;-70
2023/06/02 03:40:31;;;;;;;;;;;13.00;62.10;;;;;;5089287;28;19966;-70
2023/06/02 03:42:57;;;;;;;;;;;13.00;62.10;;;;;;5088463;28;19916;-70
2023/06/02 03:45:22;;;;;;;;;;;13.00;62.10;;;;;;5089207;28;20249;-70
2023/06/02 03:47:48;;;;;;;;;;;12.90;62.10;;;;;;5087846;28;19912;-70
2023/06/02 03:50:13;;;;;;;;;;;12.90;62.60;;;;;;5089125;28;19922;-71
2023/06/02 03:52:39;;;;;;;;;;;13.00;62.20;;;;;;5089117;28;19923;-71
2023/06/02 03:55:05;;;;;;;;;;;13.00;62.10;;;;;;5089031;28;19961;-70
2023/06/02 03:57:30;;;;;;;;;;;13.00;62.20;;;;;;5088944;28;20247;-70
2023/06/02 03:59:56;;;;;;;;;;;13.10;62.30;;;;;;5088997;28;20318;-70
2023/06/02 04:02:29;;;;;;;;;;;13.10;62.20;;;;;;5126238;27;19912;-70
2023/06/02 04:04:55;;;;;;;;;;;13.20;62.20;;;;;;5124828;28;19928;-70
2023/06/02 04:07:21;;;;;;;;;;;13.30;62.30;;;;;;5126026;27;19916;-70
2023/06/02 04:09:47;;;;;;;;;;;13.30;62.20;;;;;;5126014;27;20441;-70
2023/06/02 04:12:12;;;;;;;;;;;13.40;62.30;;;;;;5125854;27;19990;-71
2023/06/02 04:14:38;;;;;;;;;;;13.40;62.20;;;;;;5126112;27;19912;-71
2023/06/02 04:17:04;;;;;;;;;;;13.40;62.20;;;;;;5125830;27;19912;-71
2023/06/02 04:19:30;;;;;;;;;;;13.40;62.20;;;;;;5125844;27;20325;-71
2023/06/02 04:21:55;;;;;;;;;;;13.40;62.10;;;;;;5124691;28;20140;-71
2023/06/02 04:24:21;;;;;;;;;;;13.40;62.10;;;;;;5125912;27;20275;-71
2023/06/02 04:26:47;;;;;;;;;;;13.50;62.20;;;;;;5124473;28;19915;-71
2023/06/02 04:29:12;;;;;;;;;;;13.50;62.10;;;;;;5125749;27;20048;-71
2023/06/02 04:31:42;;;;;;;;;;;13.50;62.10;;;;;;5125698;27;20084;-71
2023/06/02 04:34:09;;;;;;;;;;;13.50;62.10;;;;;;5125667;27;20158;-71
2023/06/02 04:36:36;;;;;;;;;;;13.50;62.20;;;;;;5124247;28;20014;-71
2023/06/02 04:39:02;;;;;;;;;;;13.50;62.10;;;;;;5125553;27;19922;-71
2023/06/02 04:41:28;;;;;;;;;;;13.40;62.10;;;;;;5125496;27;19912;-71
2023/06/02 04:43:54;;;;;;;;;;;13.40;62.10;;;;;;5125441;27;19957;-71
2023/06/02 04:46:20;;;;;;;;;;;13.40;62.20;;;;;;5125352;27;19911;-71
2023/06/02 04:48:45;;;;;;;;;;;13.30;62.20;;;;;;5125444;27;19916;-71
2023/06/02 04:51:11;;;;;;;;;;;13.30;62.30;;;;;;5124981;27;19937;-71
2023/06/02 04:53:36;;;;;;;;;;;13.30;62.40;;;;;;5124048;28;20368;-71
2023/06/02 04:56:03;;;;;;;;;;;13.30;62.30;;;;;;5125307;27;20426;-71
2023/06/02 04:58:28;;;;;;;;;;;13.40;62.30;;;;;;5106524;28;20323;-71
2023/06/02 05:00:54;;;;;;;;;;;13.40;62.20;;;;;;5123523;28;19923;-71
2023/06/02 05:03:19;;;;;;;;;;;13.30;62.30;;;;;;5125115;27;20326;-71
2023/06/02 05:05:45;;;;;;;;;;;13.30;62.30;;;;;;5125187;27;20423;-71
2023/06/02 05:08:10;;;;;;;;;;;13.30;62.30;;;;;;5123621;28;19920;-71
2023/06/02 05:10:36;;;;;;;;;;;13.40;62.40;;;;;;5124775;27;19919;-71
2023/06/02 05:13:02;;;;;;;;;;;13.40;62.40;;;;;;5115707;27;19915;-71
2023/06/02 05:15:27;;;;;;;;;;;13.50;62.30;;;;;;5111131;28;19916;-71
2023/06/02 05:17:53;;;;;;;;;;;13.50;62.40;;;;;;5109821;28;19973;-71
2023/06/02 05:20:19;;;;;;;;;;;13.60;62.50;;;;;;5109572;28;19950;-72
2023/06/02 05:22:44;;;;;;;;;;;13.70;62.40;;;;;;5111108;28;19908;-72
2023/06/02 05:25:10;;;;;;;;;;;13.80;62.40;;;;;;5111125;28;19995;-71
2023/06/02 05:27:36;;;;;;;;;;;13.90;62.40;;;;;;5109694;28;20463;-71
2023/06/02 05:30:02;;;;;;;;;;;13.90;62.40;;;;;;5110449;28;19912;-71
2023/06/02 05:32:27;;;;;;;;;;;14.00;62.60;;;;;;5110529;27;20371;-71
2023/06/02 05:34:53;;;;;;;;;;;14.10;62.50;;;;;;5110700;28;19912;-71
2023/06/02 05:37:18;;;;;;;;;;;14.20;62.40;;;;;;5092394;28;19923;-67
2023/06/02 05:39:44;;;;;;;;;;;14.20;62.40;;;;;;5110734;28;19907;-77
2023/06/02 05:42:10;;;;;;;;;;;14.20;62.40;;;;;;5109230;28;19908;-71
2023/06/02 05:44:35;;;;;;;;;;;14.30;62.50;;;;;;5110572;28;20283;-71
2023/06/02 05:47:01;;;;;;;;;;;14.50;62.50;;;;;;5110366;28;19923;-72
2023/06/02 05:49:26;;;;;;;;;;;14.50;62.40;;;;;;5110501;28;19915;-71
2023/06/02 05:51:52;;;;;;;;;;;14.60;62.30;;;;;;5110180;28;20363;-71
2023/06/02 05:54:17;;;;;;;;;;;14.60;62.30;;;;;;5109001;28;20019;-72
2023/06/02 05:56:43;;;;;;;;;;;14.70;62.30;;;;;;5110140;28;19916;-72
2023/06/02 05:59:09;;;;;;;;;;;14.70;62.20;;;;;;5110091;28;19960;-71
2023/06/02 06:01:35;;;;;;;;;;;14.80;62.30;;;;;;5109886;28;19924;-71
2023/06/02 06:04:01;;;;;;;;;;;14.80;62.50;;;;;;5110095;28;20007;-71
2023/06/02 06:06:27;;;;;;;;;;;14.90;62.50;;;;;;5108596;28;19990;-71
2023/06/02 06:08:52;;;;;;;;;;;14.90;62.50;;;;;;5110095;28;19915;-71
2023/06/02 06:11:18;;;;;;;;;;;15.00;62.50;;;;;;5110208;27;20302;-71
2023/06/02 06:13:43;;;;;;;;;;;15.10;62.40;;;;;;5110005;28;19953;-72
2023/06/02 06:16:09;;;;;;;;;;;15.30;62.80;;;;;;5109770;28;19998;-72
2023/06/02 06:18:35;;;;;;;;;;;15.90;62.40;;;;;;5109950;28;19920;-72
2023/06/02 06:21:00;;;;;;;;;;;15.90;61.70;;;;;;5110017;27;19980;-71
2023/06/02 06:23:26;;;;;;;;;;;15.70;61.70;;;;;;5109403;28;19937;-72
2023/06/02 06:25:52;;;;;;;;;;;15.50;61.90;;;;;;5109128;28;19911;-71
2023/06/02 06:28:17;;;;;;;;;;;15.40;62.20;;;;;;5109387;28;19965;-71
2023/06/02 06:30:45;;;;;;;;;;;15.30;62.40;;;;;;5109020;28;20036;-71
2023/06/02 06:33:10;;;;;;;;;;;15.20;62.40;;;;;;5109136;28;19911;-71
2023/06/02 06:35:36;;;;;;;;;;;15.20;62.50;;;;;;5109451;28;20352;-71
2023/06/02 06:38:02;;;;;;;;;;;15.20;62.50;;;;;;5107911;28;19911;-71
2023/06/02 06:40:27;;;;;;;;;;;15.10;62.50;;;;;;5108926;28;19914;-72
2023/06/02 06:42:53;;;;;;;;;;;15.10;62.70;;;;;;5109364;28;20010;-72
2023/06/02 06:45:18;;;;;;;;;;;15.10;62.70;;;;;;5109431;28;19923;-72
2023/06/02 06:47:44;;;;;;;;;;;15.10;62.70;;;;;;5109423;28;19912;-72
2023/06/02 06:50:12;;;;;;;;;;;15.20;62.70;;;;;;5108758;28;19912;-71
2023/06/02 06:52:37;;;;;;;;;;;15.20;62.80;;;;;;5108887;28;19908;-71
2023/06/02 06:55:03;;;;;;;;;;;15.30;62.90;;;;;;5107548;28;20394;-71
2023/06/02 06:57:29;;;;;;;;;;;15.50;62.80;;;;;;5108877;28;19919;-71
2023/06/02 06:59:54;;;;;;;;;;;15.70;62.70;;;;;;5107075;28;19916;-71
2023/06/02 07:02:20;;;;;;;;;;;15.90;62.60;;;;;;5108510;28;20328;-71
2023/06/02 07:04:46;;;;;;;;;;;16.00;62.50;;;;;;5108750;28;20196;-72
2023/06/02 07:07:12;;;;;;;;;;;16.00;62.50;;;;;;5108732;28;19915;-71
2023/06/02 07:09:37;;;;;;;;;;;16.10;62.50;;;;;;5107254;28;19965;-71
2023/06/02 07:12:03;;;;;;;;;;;16.00;62.50;;;;;;5108844;28;19920;-70
2023/06/02 07:14:29;;;;;;;;;;;16.00;62.60;;;;;;5108436;28;20329;-71
2023/06/02 07:16:55;;;;;;;;;;;15.90;62.60;;;;;;5108502;28;19951;-71
2023/06/02 07:19:21;;;;;;;;;;;15.90;62.70;;;;;;5108219;28;19948;-71
2023/06/02 07:21:46;;;;;;;;;;;16.00;62.80;;;;;;5108164;28;19939;-71
2023/06/02 07:24:12;;;;;;;;;;;16.10;62.80;;;;;;5108159;28;19937;-71
2023/06/02 07:26:37;;;;;;;;;;;16.30;63.00;;;;;;5108205;28;19912;-71
2023/06/02 07:29:03;;;;;;;;;;;16.40;62.60;;;;;;5108227;28;20341;-71
2023/06/02 07:31:28;;;;;;;;;;;16.50;62.40;;;;;;5107886;28;19918;-71
2023/06/02 07:33:54;;;;;;;;;;;16.50;62.90;;;;;;5106765;28;19912;-71
2023/06/02 07:36:20;;;;;;;;;;;16.40;62.40;;;;;;5106698;28;19919;-71
2023/06/02 07:39:08;;;;;;;;;;;16.50;62.80;;;;;;5108227;28;19939;-71
2023/06/02 07:41:34;;;;;;;;;;;16.50;62.80;;;;;;5106706;28;19930;-71
2023/06/02 07:43:59;;;;;;;;;;;16.70;62.90;;;;;;5106616;28;20371;-71
2023/06/02 07:46:25;;;;;;;;;;;16.80;62.80;;;;;;5107855;28;20374;-71
2023/06/02 07:48:50;;;;;;;;;;;17.10;63.10;;;;;;5107891;28;20384;-71
2023/06/02 07:51:16;;;;;;;;;;;17.50;62.80;;;;;;5107970;28;19911;-71
2023/06/02 07:53:42;;;;;;;;;;;17.60;62.60;;;;;;5107568;28;20376;-71
2023/06/02 07:56:07;;;;;;;;;;;17.70;62.70;;;;;;5107544;28;19916;-71
2023/06/02 07:58:33;;;;;;;;;;;17.90;62.70;;;;;;5107705;28;19911;-71
2023/06/02 08:00:58;;;;;;;;;;;18.10;62.50;;;;;;5107664;28;20288;-71
2023/06/02 08:03:24;;;;;;;;;;;18.30;62.60;;;;;;5107524;28;19912;-71
2023/06/02 08:05:50;;;;;;;;;;;18.50;62.60;;;;;;5107669;28;20351;-71
2023/06/02 08:08:16;;;;;;;;;;;18.60;62.40;;;;;;5107577;28;19940;-71
2023/06/02 08:10:42;;;;;;;;;;;18.70;62.60;;;;;;5107383;28;20260;-71
2023/06/02 08:13:08;;;;;;;;;;;18.90;62.50;;;;;;5107600;28;20003;-71
2023/06/02 08:15:34;;;;;;;;;;;19.10;62.40;;;;;;5107529;28;20018;-71
2023/06/02 08:18:00;;;;;;;;;;;19.10;62.40;;;;;;5105889;28;19998;-71
2023/06/02 08:20:25;;;;;;;;;;;19.80;62.90;;;;;;5105833;28;20295;-71
2023/06/02 08:22:51;;;;;;;;;;;20.00;62.40;;;;;;5107018;28;19926;-71
2023/06/02 08:25:16;;;;;;;;;;;19.90;62.00;;;;;;5107275;28;19976;-71
2023/06/02 08:27:44;;;;;;;;;;;20.20;62.60;;;;;;5107001;28;19922;-71
2023/06/02 08:30:11;;;;;;;;;;;20.40;62.60;;;;;;5106882;28;19921;-72
2023/06/02 08:32:36;;;;;;;;;;;20.90;63.00;;;;;;5107283;28;20573;-71
2023/06/02 08:35:02;;;;;;;;;;;21.00;62.40;;;;;;5106092;28;19918;-71
2023/06/02 08:37:29;;;;;;;;;;;20.90;63.20;;;;;;5105752;28;20437;-71
2023/06/02 08:39:55;;;;;;;;;;;21.30;62.90;;;;;;5106050;28;19919;-71
2023/06/02 08:42:22;;;;;;;;;;;21.30;62.70;;;;;;5106709;28;19922;-71
2023/06/02 08:44:48;;;;;;;;;;;21.20;62.20;;;;;;5106899;28;20056;-71
2023/06/02 08:47:13;;;;;;;;;;;21.10;62.50;;;;;;5107799;28;20014;-71
2023/06/02 08:49:41;;;;;;;;;;;21.10;62.90;;;;;;5111087;28;19911;-71
2023/06/02 08:52:10;;;;;;;;;;;21.20;62.60;;;;;;5110531;27;19925;-71
2023/06/02 08:54:36;;;;;;;;;;;20.90;62.60;;;;;;5110774;28;19991;-71
2023/06/02 08:57:04;;;;;;;;;;;20.70;62.60;;;;;;5109447;28;19912;-71
2023/06/02 08:59:30;;;;;;;;;;;20.50;62.90;;;;;;5108925;28;20498;-71
2023/06/02 09:01:56;;;;;;;;;;;20.50;62.80;;;;;;5108939;28;19932;-70
2023/06/02 09:04:21;;;;;;;;;;;20.40;62.80;;;;;;5110844;28;19912;-71
2023/06/02 09:06:49;;;;;;;;;;;20.70;63.30;;;;;;5110862;28;20333;-71
2023/06/02 09:09:15;;;;;;;;;;;21.40;63.70;;;;;;5109043;28;19916;-71
2023/06/02 09:11:56;;;;;;;;;;;21.90;63.10;;;;;;5110398;28;20455;-71
2023/06/02 09:14:22;;;;;;;;;;;22.10;62.60;;;;;;5110368;28;20383;-71
2023/06/02 09:16:47;;;;;;;;;;;22.00;62.50;;;;;;5110764;28;20010;-72
2023/06/02 09:19:13;;;;;;;;;;;21.70;62.70;;;;;;5111100;28;19911;-71
2023/06/02 09:21:39;;;;;;;;;;;21.60;62.80;;;;;;5111044;28;19943;-71
2023/06/02 09:24:05;;;;;;;;;;;21.60;63.80;;;;;;5110893;28;19912;-71
2023/06/02 09:26:31;;;;;;;;;;;21.70;63.00;;;;;;5110625;28;19965;-71
2023/06/02 09:29:11;;;;;;;;;;;21.80;63.20;;;;;;5110543;28;19908;-72
2023/06/02 09:31:48;;;;;;;;;;;22.00;63.00;;;;;;5110351;28;19951;-73
2023/06/02 09:34:15;;;;;;;;;;;22.20;62.70;;;;;;5111014;28;19908;-73
2023/06/02 09:36:41;;;;;;;;;;;22.40;63.10;;;;;;5110803;28;19916;-73
2023/06/02 09:39:08;;;;;;;;;;;22.70;63.10;;;;;;5110881;28;19919;-72
2023/06/02 09:41:33;;;;;;;;;;;23.00;62.90;;;;;;5109384;28;19912;-73
2023/06/02 09:43:59;;;;;;;;;;;23.30;62.90;;;;;;5110115;28;19939;-72
2023/06/02 09:46:25;;;;;;;;;;;23.80;63.30;;;;;;5110841;28;20241;-73
2023/06/02 09:48:55;;;;;;;;;;;24.10;63.20;;;;;;5110860;28;19915;-73
2023/06/02 09:51:24;;;;;;;;;;;24.10;63.50;;;;;;5110649;28;19917;-73
2023/06/02 09:53:50;;;;;;;;;;;24.00;63.80;;;;;;5110797;28;19988;-72
2023/06/02 09:56:17;;;;;;;;;;;24.60;64.30;;;;;;5109072;28;19912;-72
2023/06/02 09:58:43;;;;;;;;;;;24.80;63.90;;;;;;5110351;28;19907;-73
2023/06/02 10:01:12;;;;;;;;;;;25.10;64.30;;;;;;5098726;28;20496;-73
2023/06/02 10:03:41;;;;;;;;;;;25.90;64.10;;;;;;5099640;28;19958;-73
2023/06/02 10:06:11;;;;;;;;;;;26.10;63.60;;;;;;5100424;28;19923;-73
2023/06/02 10:09:03;;;;;;;;;;;26.10;63.40;;;;;;5100562;28;19908;-70
2023/06/02 10:11:43;;;;;;;;;;;26.00;63.30;;;;;;5073617;28;19913;-70
2023/06/02 10:14:21;;;;;;;;;;;26.30;63.90;;;;;;5099145;28;19950;-70
2023/06/02 10:16:50;;;;;;;;;;;26.90;64.30;;;;;;5099407;28;19936;-70
2023/06/02 10:19:34;;;;;;;;;;;27.50;64.50;;;;;;5102127;28;19912;-70
2023/06/02 10:22:02;;;;;;;;;;;28.00;64.40;;;;;;5100799;28;19919;-71
2023/06/02 10:24:50;;;;;;;;;;;28.30;64.70;;;;;;5100532;28;19912;-71
2023/06/02 10:27:23;;;;;;;;;;;28.90;64.90;;;;;;5100360;28;20411;-69
2023/06/02 10:29:52;;;;;;;;;;;28.50;63.80;;;;;;5100109;28;20347;-69
2023/06/02 10:32:19;;;;;;;;;;;28.20;64.10;;;;;;5096890;28;20404;-70
2023/06/02 10:34:47;;;;;;;;;;;28.10;64.60;;;;;;5100455;28;19919;-70
2023/06/02 10:37:13;;;;;;;;;;;28.20;65.00;;;;;;5101676;28;19983;-69
2023/06/02 10:39:39;;;;;;;;;;;28.50;65.20;;;;;;5101707;28;19914;-68
2023/06/02 10:42:06;;;;;;;;;;;28.80;65.00;;;;;;5101545;28;19911;-71
2023/06/02 10:44:32;;;;;;;;;;;28.80;64.80;;;;;;5101303;28;19954;-71
2023/06/02 10:47:16;;;;;;;;;;;28.80;64.90;;;;;;5097136;28;19964;-69
2023/06/02 10:50:03;;;;;;;;;;;29.00;64.90;;;;;;5097793;28;20372;-71
2023/06/02 10:52:30;;;;;;;;;;;29.30;64.80;;;;;;5092717;28;19938;-72
2023/06/02 10:55:08;;;;;;;;;;;29.80;65.00;;;;;;5090136;28;19918;-72
2023/06/02 10:57:48;;;;;;;;;;;30.20;64.90;;;;;;5089511;28;20290;-73
2023/06/02 11:00:29;;;;;;;;;;;30.30;64.70;;;;;;5088956;28;19907;-71
2023/06/02 11:02:55;;;;;;;;;;;29.90;64.50;;;;;;5089307;28;20393;-72
2023/06/02 11:05:23;;;;;;;;;;;29.80;64.50;;;;;;5089181;28;19912;-72
2023/06/02 11:08:08;;;;;;;;;;;29.50;64.50;;;;;;5088796;28;20360;-72
2023/06/02 11:11:00;;;;;;;;;;;29.10;64.80;;;;;;5087586;28;20431;-73
2023/06/02 11:13:26;;;;;;;;;;;28.90;65.20;;;;;;5086953;28;20371;-72
2023/06/02 11:15:58;;;;;;;;;;;28.80;65.20;;;;;;5088574;28;20367;-72
2023/06/02 11:18:33;;;;;;;;;;;28.60;65.10;;;;;;5088642;28;20098;-72
2023/06/02 11:21:00;;;;;;;;;;;28.70;65.80;;;;;;5088528;28;19908;-73
2023/06/02 11:23:26;;;;;;;;;;;28.90;65.70;;;;;;5088545;28;19915;-72
2023/06/02 11:26:00;;;;;;;;;;;28.90;65.40;;;;;;5088448;28;20019;-74
2023/06/02 11:28:26;;;;;;;;;;;28.80;65.60;;;;;;5088954;28;20418;-77
2023/06/02 11:31:05;;;;;;;;;;;28.90;65.80;;;;;;5088488;28;20487;-76
2023/06/02 11:33:33;;;;;;;;;;;28.90;65.20;;;;;;5088879;28;20471;-73
2023/06/02 11:35:59;;;;;;;;;;;28.60;64.90;;;;;;5088588;28;20006;-74
2023/06/02 11:38:32;;;;;;;;;;;28.50;65.20;;;;;;5088383;28;19915;-73
2023/06/02 11:41:10;;;;;;;;;;;28.40;65.70;;;;;;5088201;28;19953;-74
2023/06/02 11:43:36;;;;;;;;;;;28.50;65.80;;;;;;5088632;28;19931;-71
2023/06/02 11:46:08;;;;;;;;;;;28.70;66.50;;;;;;5086729;28;19919;-71
2023/06/02 11:48:43;;;;;;;;;;;29.30;66.30;;;;;;5088581;28;19909;-69
2023/06/02 11:51:09;;;;;;;;;;;30.00;65.80;;;;;;5088351;28;19912;-72
2023/06/02 11:53:37;;;;;;;;;;;30.00;65.10;;;;;;5088398;28;19914;-71
2023/06/02 11:56:05;;;;;;;;;;;29.80;64.90;;;;;;5088257;28;19927;-70
2023/06/02 11:58:31;;;;;;;;;;;29.80;64.80;;;;;;5088561;28;19927;-72
2023/06/02 12:01:07;;;;;;;;;;;29.70;65.00;;;;;;5088116;28;20281;-74
2023/06/02 12:03:32;;;;;;;;;;;29.40;65.30;;;;;;5086816;28;20390;-71
2023/06/02 12:06:07;;;;;;;;;;;29.30;65.50;;;;;;5087900;28;19915;-71
2023/06/02 12:08:32;;;;;;;;;;;29.10;65.10;;;;;;5088044;28;19908;-71
2023/06/02 12:10:58;;;;;;;;;;;28.70;65.00;;;;;;5088197;28;20368;-72
2023/06/02 12:13:23;;;;;;;;;;;28.50;65.00;;;;;;5087986;28;19922;-72
2023/06/02 12:15:49;;;;;;;;;;;28.30;65.70;;;;;;5087653;28;20009;-75
2023/06/02 12:18:25;;;;;;;;;;;28.40;65.70;;;;;;5092431;28;19916;-75
2023/06/02 12:20:53;;;;;;;;;;;28.50;66.00;;;;;;5108529;28;19923;-75
2023/06/02 12:23:19;;;;;;;;;;;28.60;65.90;;;;;;5109118;28;19916;-74
2023/06/02 12:25:52;;;;;;;;;;;28.70;65.80;;;;;;5112542;28;20229;-75
2023/06/02 12:28:18;;;;;;;;;;;28.80;65.50;;;;;;5112576;28;19961;-75
2023/06/02 12:30:46;;;;;;;;;;;28.70;65.40;;;;;;5104757;28;19920;-73
2023/06/02 12:33:12;;;;;;;;;;;28.50;65.60;;;;;;5099063;28;20294;-73
2023/06/02 12:35:38;;;;;;;;;;;28.40;65.60;;;;;;5094684;28;19994;-74
2023/06/02 12:38:05;;;;;;;;;;;28.30;65.90;;;;;;5092187;28;20403;-73
2023/06/02 12:40:34;;;;;;;;;;;28.20;65.90;;;;;;5090292;28;19963;-72
2023/06/02 12:42:59;;;;;;;;;;;28.00;65.10;;;;;;5091484;28;19919;-73
2023/06/02 12:45:25;;;;;;;;;;;27.70;65.70;;;;;;5089969;28;19912;-72
2023/06/02 12:47:54;;;;;;;;;;;27.80;65.60;;;;;;5089448;28;20613;-72
2023/06/02 12:50:23;;;;;;;;;;;27.70;65.70;;;;;;5089441;28;20003;-72
2023/06/02 12:52:50;;;;;;;;;;;27.60;65.70;;;;;;5091296;28;19918;-71
2023/06/02 12:55:16;;;;;;;;;;;27.60;65.90;;;;;;5090797;28;19916;-70
2023/06/02 12:57:43;;;;;;;;;;;27.40;65.60;;;;;;5091032;28;19912;-70
2023/06/02 13:00:10;;;;;;;;;;;27.20;65.70;;;;;;5090950;28;19908;-70
2023/06/02 13:02:36;;;;;;;;;;;27.10;65.80;;;;;;5090681;28;19927;-70
2023/06/02 13:05:01;;;;;;;;;;;27.00;65.80;;;;;;5090893;28;20426;-70
2023/06/02 13:07:27;;;;;;;;;;;26.90;65.60;;;;;;5090975;28;19912;-76
2023/06/02 13:09:53;;;;;;;;;;;26.80;65.50;;;;;;5090765;28;20407;-77
2023/06/02 13:12:18;;;;;;;;;;;26.70;65.50;;;;;;5091190;28;19912;-70
2023/06/02 13:14:44;;;;;;;;;;;26.40;65.00;;;;;;5091101;28;19982;-74
2023/06/02 13:17:10;;;;;;;;;;;25.90;65.00;;;;;;5089993;28;19912;-74
2023/06/02 13:19:35;;;;;;;;;;;25.50;64.40;;;;;;5091051;28;19916;-67
2023/06/02 13:22:02;;;;;;;;;;;24.80;64.30;;;;;;5091581;28;20436;-75
2023/06/02 13:24:28;;;;;;;;;;;24.30;64.30;;;;;;5091630;28;19971;-76
2023/06/02 13:26:54;;;;;;;;;;;23.70;64.30;;;;;;5090928;28;19923;-74
2023/06/02 13:29:20;;;;;;;;;;;23.30;64.50;;;;;;5090940;28;19918;-75
2023/06/02 13:31:45;;;;;;;;;;;23.20;64.40;;;;;;5090754;28;19930;-72
2023/06/02 13:34:11;;;;;;;;;;;22.90;64.00;;;;;;5090039;28;19916;-74
2023/06/02 13:36:36;;;;;;;;;;;22.70;64.00;;;;;;5090438;28;19932;-74
2023/06/02 13:39:02;;;;;;;;;;;22.40;63.80;;;;;;5090834;28;19908;-72
2023/06/02 13:41:29;;;;;;;;;;;22.20;63.90;;;;;;5090348;28;20011;-73
2023/06/02 13:43:54;;;;;;;;;;;22.00;63.80;;;;;;5090295;28;19944;-73
2023/06/02 13:46:21;;;;;;;;;;;21.80;63.40;;;;;;5090172;28;20026;-75
2023/06/02 13:48:46;;;;;;;;;;;21.50;63.70;;;;;;5090313;28;19913;-74
2023/06/02 13:51:12;;;;;;;;;;;21.30;63.60;;;;;;5095842;28;19943;-75
2023/06/02 13:53:38;;;;;;;;;;;21.10;63.60;;;;;;5095871;28;20376;-75
2023/06/02 13:56:03;;;;;;;;;;;21.00;63.60;;;;;;5102908;28;19936;-75
2023/06/02 13:58:34;;;;;;;;;;;20.80;63.40;;;;;;5107864;27;19926;-74
2023/06/02 14:00:59;;;;;;;;;;;20.80;63.60;;;;;;5101159;28;20335;-73
2023/06/02 14:03:25;;;;;;;;;;;20.70;63.30;;;;;;5095644;28;19948;-76
2023/06/02 14:05:50;;;;;;;;;;;20.60;63.40;;;;;;5089003;28;19916;-76
2023/06/02 14:08:16;;;;;;;;;;;20.60;63.40;;;;;;5088437;28;19912;-71
2023/06/02 14:10:42;;;;;;;;;;;20.60;63.10;;;;;;5089281;28;22166;-76
2023/06/02 14:13:07;;;;;;;;;;;20.50;63.40;;;;;;5090555;28;19920;-75
2023/06/02 14:15:33;;;;;;;;;;;20.40;62.80;;;;;;5089418;28;19914;-75